createdAt,value
2023-04-15T00:00:18.636Z,485.00
2023-04-15T00:01:18.633Z,484.00
2023-04-15T00:02:18.832Z,484.00
2023-04-15T00:03:18.820Z,483.00
2023-04-15T00:04:18.629Z,481.00
2023-04-15T00:05:18.632Z,481.00
2023-04-15T00:06:18.628Z,480.00
2023-04-15T00:07:18.576Z,479.00
2023-04-15T00:08:19.296Z,478.00
2023-04-15T00:09:18.549Z,478.00
2023-04-15T00:10:18.598Z,477.00
2023-04-15T00:11:18.558Z,476.00
2023-04-15T00:12:18.529Z,476.00
2023-04-15T00:13:18.553Z,476.00
2023-04-15T00:14:18.554Z,476.00
2023-04-15T00:15:18.517Z,478.00
2023-04-15T00:16:18.566Z,476.00
2023-04-15T00:17:18.521Z,475.00
2023-04-15T00:18:18.546Z,477.00
2023-04-15T00:19:18.523Z,480.00
2023-04-15T00:20:18.482Z,481.00
2023-04-15T00:21:18.517Z,481.00
2023-04-15T00:22:18.479Z,479.00
2023-04-15T00:23:18.479Z,478.00
2023-04-15T00:24:18.439Z,479.00
2023-04-15T00:25:18.445Z,482.00
2023-04-15T00:26:18.491Z,482.00
2023-04-15T00:27:18.439Z,482.00
2023-04-15T00:28:18.451Z,480.00
2023-04-15T00:29:18.454Z,480.00
2023-04-15T00:30:18.421Z,480.00
2023-04-15T00:31:18.447Z,482.00
2023-04-15T00:32:18.415Z,481.00
2023-04-15T00:33:18.418Z,480.00
2023-04-15T00:34:18.412Z,480.00
2023-04-15T00:35:18.464Z,479.00
2023-04-15T00:36:18.404Z,479.00
2023-04-15T00:37:18.382Z,479.00
2023-04-15T00:38:18.388Z,477.00
2023-04-15T00:39:18.400Z,475.00
2023-04-15T00:40:18.398Z,477.00
2023-04-15T00:41:18.390Z,475.00
2023-04-15T00:42:18.419Z,478.00
2023-04-15T00:43:18.449Z,479.00
2023-04-15T00:44:18.425Z,481.00
2023-04-15T00:45:18.436Z,482.00
2023-04-15T00:46:18.497Z,480.00
2023-04-15T00:47:18.443Z,478.00
2023-04-15T00:48:18.437Z,477.00
2023-04-15T00:49:18.464Z,474.00
2023-04-15T00:50:18.450Z,475.00
2023-04-15T00:51:18.468Z,475.00
2023-04-15T00:52:18.455Z,476.00
2023-04-15T00:53:18.464Z,477.00
2023-04-15T00:54:18.510Z,477.00
2023-04-15T00:55:18.501Z,479.00
2023-04-15T00:56:18.494Z,480.00
2023-04-15T00:57:18.502Z,479.00
2023-04-15T00:58:18.498Z,478.00
2023-04-15T00:59:18.542Z,479.00
2023-04-15T01:00:18.516Z,483.00
2023-04-15T01:01:18.568Z,483.00
2023-04-15T01:02:18.664Z,484.00
2023-04-15T01:03:18.725Z,483.00
2023-04-15T01:04:18.638Z,483.00
2023-04-15T01:05:18.563Z,480.00
2023-04-15T01:06:18.570Z,482.00
2023-04-15T01:07:18.537Z,483.00
2023-04-15T01:08:18.572Z,485.00
2023-04-15T01:09:18.561Z,484.00
2023-04-15T01:10:18.598Z,480.00
2023-04-15T01:11:18.585Z,481.00
2023-04-15T01:12:18.590Z,479.00
2023-04-15T01:13:18.568Z,478.00
2023-04-15T01:14:18.583Z,478.00
2023-04-15T01:15:18.622Z,477.00
2023-04-15T01:16:18.615Z,474.00
2023-04-15T01:17:18.606Z,474.00
2023-04-15T01:18:18.600Z,474.00
2023-04-15T01:19:18.596Z,475.00
2023-04-15T01:20:18.632Z,474.00
2023-04-15T01:21:18.601Z,474.00
2023-04-15T01:22:18.632Z,472.00
2023-04-15T01:23:18.624Z,472.00
2023-04-15T01:24:18.628Z,471.00
2023-04-15T01:25:18.653Z,471.00
2023-04-15T01:26:18.624Z,470.00
2023-04-15T01:27:18.637Z,469.00
2023-04-15T01:28:18.596Z,470.00
2023-04-15T01:29:18.602Z,469.00
2023-04-15T01:30:18.610Z,469.00
2023-04-15T01:31:18.708Z,470.00
2023-04-15T01:32:18.592Z,471.00
2023-04-15T01:33:18.607Z,470.00
2023-04-15T01:34:18.655Z,470.00
2023-04-15T01:35:18.643Z,468.00
2023-04-15T01:36:18.640Z,470.00
2023-04-15T01:37:18.678Z,469.00
2023-04-15T01:38:18.635Z,469.00
2023-04-15T01:39:18.683Z,470.00
2023-04-15T01:40:18.655Z,471.00
2023-04-15T01:41:18.677Z,471.00
2023-04-15T01:42:18.676Z,472.00
2023-04-15T01:43:18.704Z,470.00
2023-04-15T01:44:18.784Z,470.00
2023-04-15T01:45:18.719Z,467.00
2023-04-15T01:46:18.776Z,465.00
2023-04-15T01:47:18.794Z,466.00
2023-04-15T01:48:18.753Z,465.00
2023-04-15T01:49:18.735Z,466.00
2023-04-15T01:50:18.724Z,467.00
2023-04-15T01:51:18.728Z,465.00
2023-04-15T01:52:18.778Z,464.00
2023-04-15T01:53:18.747Z,464.00
2023-04-15T01:54:18.761Z,464.00
2023-04-15T01:55:18.759Z,463.00
2023-04-15T01:56:18.800Z,462.00
2023-04-15T01:57:18.809Z,462.00
2023-04-15T01:58:18.801Z,463.00
2023-04-15T01:59:18.831Z,464.00
2023-04-15T02:00:18.808Z,463.00
2023-04-15T02:01:18.906Z,464.00
2023-04-15T02:02:18.950Z,464.00
2023-04-15T02:03:18.897Z,462.00
2023-04-15T02:04:18.896Z,461.00
2023-04-15T02:05:18.875Z,462.00
2023-04-15T02:06:18.884Z,460.00
2023-04-15T02:07:18.880Z,459.00
2023-04-15T02:08:18.886Z,460.00
2023-04-15T02:09:18.877Z,461.00
2023-04-15T02:10:18.950Z,460.00
2023-04-15T02:11:18.905Z,459.00
2023-04-15T02:12:18.905Z,459.00
2023-04-15T02:13:18.922Z,460.00
2023-04-15T02:14:18.962Z,462.00
2023-04-15T02:15:18.927Z,461.00
2023-04-15T02:16:19.089Z,460.00
2023-04-15T02:17:18.962Z,457.00
2023-04-15T02:18:18.952Z,456.00
2023-04-15T02:19:18.971Z,456.00
2023-04-15T02:20:18.958Z,456.00
2023-04-15T02:21:19.015Z,456.00
2023-04-15T02:22:19.101Z,456.00
2023-04-15T02:23:18.971Z,457.00
2023-04-15T02:24:18.969Z,458.00
2023-04-15T02:25:19.025Z,456.00
2023-04-15T02:26:18.988Z,455.00
2023-04-15T02:27:19.004Z,456.00
2023-04-15T02:28:19.165Z,457.00
2023-04-15T02:29:19.040Z,458.00
2023-04-15T02:30:19.031Z,457.00
2023-04-15T02:31:19.070Z,455.00
2023-04-15T02:32:19.105Z,454.00
2023-04-15T02:33:19.069Z,454.00
2023-04-15T02:34:19.107Z,452.00
2023-04-15T02:35:19.106Z,454.00
2023-04-15T02:36:19.186Z,454.00
2023-04-15T02:37:19.117Z,454.00
2023-04-15T02:38:19.113Z,454.00
2023-04-15T02:39:19.166Z,455.00
2023-04-15T02:40:19.124Z,455.00
2023-04-15T02:41:19.174Z,455.00
2023-04-15T02:42:19.149Z,455.00
2023-04-15T02:43:19.131Z,455.00
2023-04-15T02:44:19.166Z,452.00
2023-04-15T02:45:19.178Z,451.00
2023-04-15T02:46:19.224Z,449.00
2023-04-15T02:47:19.220Z,450.00
2023-04-15T02:48:19.196Z,453.00
2023-04-15T02:49:19.267Z,455.00
2023-04-15T02:50:19.209Z,455.00
2023-04-15T02:51:19.195Z,455.00
2023-04-15T02:52:19.224Z,456.00
2023-04-15T02:53:19.227Z,456.00
2023-04-15T02:54:19.227Z,454.00
2023-04-15T02:55:19.240Z,452.00
2023-04-15T02:56:19.233Z,451.00
2023-04-15T02:57:19.260Z,451.00
2023-04-15T02:58:19.248Z,452.00
2023-04-15T02:59:19.269Z,452.00
2023-04-15T03:00:19.248Z,452.00
2023-04-15T03:01:19.344Z,449.00
2023-04-15T03:02:19.279Z,447.00
2023-04-15T03:03:19.460Z,444.00
2023-04-15T03:04:19.292Z,446.00
2023-04-15T03:05:19.291Z,448.00
2023-04-15T03:06:19.324Z,446.00
2023-04-15T03:07:19.300Z,447.00
2023-04-15T03:08:19.282Z,448.00
2023-04-15T03:09:19.301Z,446.00
2023-04-15T03:10:19.343Z,445.00
2023-04-15T03:11:19.342Z,447.00
2023-04-15T03:12:19.314Z,449.00
2023-04-15T03:13:19.345Z,448.00
2023-04-15T03:14:19.319Z,448.00
2023-04-15T03:15:19.323Z,446.00
2023-04-15T03:16:19.378Z,446.00
2023-04-15T03:17:19.366Z,447.00
2023-04-15T03:18:19.330Z,449.00
2023-04-15T03:19:19.373Z,449.00
2023-04-15T03:20:19.401Z,449.00
2023-04-15T03:21:19.359Z,450.00
2023-04-15T03:22:19.388Z,450.00
2023-04-15T03:23:19.380Z,448.00
2023-04-15T03:24:19.397Z,446.00
2023-04-15T03:25:19.438Z,444.00
2023-04-15T03:26:19.391Z,443.00
2023-04-15T03:27:19.448Z,442.00
2023-04-15T03:28:19.454Z,445.00
2023-04-15T03:29:19.428Z,448.00
2023-04-15T03:30:19.475Z,451.00
2023-04-15T03:31:19.941Z,453.00
2023-04-15T03:32:19.472Z,452.00
2023-04-15T03:33:19.456Z,450.00
2023-04-15T03:34:19.460Z,449.00
2023-04-15T03:35:19.473Z,447.00
2023-04-15T03:36:19.443Z,447.00
2023-04-15T03:37:19.466Z,446.00
2023-04-15T03:38:19.556Z,445.00
2023-04-15T03:39:19.471Z,445.00
2023-04-15T03:40:19.482Z,446.00
2023-04-15T03:41:19.478Z,444.00
2023-04-15T03:42:19.495Z,445.00
2023-04-15T03:43:19.531Z,443.00
2023-04-15T03:44:19.494Z,442.00
2023-04-15T03:45:19.519Z,442.00
2023-04-15T03:46:19.519Z,442.00
2023-04-15T03:47:19.565Z,442.00
2023-04-15T03:48:19.543Z,443.00
2023-04-15T03:49:19.572Z,443.00
2023-04-15T03:50:19.578Z,443.00
2023-04-15T03:51:19.534Z,442.00
2023-04-15T03:52:19.568Z,442.00
2023-04-15T03:53:19.590Z,442.00
2023-04-15T03:54:19.542Z,446.00
2023-04-15T03:55:19.567Z,446.00
2023-04-15T03:56:19.596Z,447.00
2023-04-15T03:57:19.587Z,447.00
2023-04-15T03:58:19.590Z,447.00
2023-04-15T03:59:19.602Z,449.00
2023-04-15T04:00:19.586Z,446.00
2023-04-15T04:01:19.639Z,445.00
2023-04-15T04:02:19.792Z,445.00
2023-04-15T04:03:19.691Z,446.00
2023-04-15T04:04:19.678Z,446.00
2023-04-15T04:05:19.621Z,445.00
2023-04-15T04:06:19.623Z,447.00
2023-04-15T04:07:19.625Z,446.00
2023-04-15T04:08:19.648Z,445.00
2023-04-15T04:09:19.731Z,444.00
2023-04-15T04:10:19.637Z,443.00
2023-04-15T04:11:19.675Z,442.00
2023-04-15T04:12:19.629Z,441.00
2023-04-15T04:13:19.651Z,439.00
2023-04-15T04:14:19.650Z,437.00
2023-04-15T04:15:19.652Z,437.00
2023-04-15T04:16:19.701Z,439.00
2023-04-15T04:17:19.726Z,439.00
2023-04-15T04:18:19.690Z,439.00
2023-04-15T04:19:19.689Z,437.00
2023-04-15T04:20:19.686Z,436.00
2023-04-15T04:21:19.688Z,438.00
2023-04-15T04:22:19.708Z,438.00
2023-04-15T04:23:19.697Z,440.00
2023-04-15T04:24:19.732Z,442.00
2023-04-15T04:25:19.720Z,442.00
2023-04-15T04:26:19.824Z,442.00
2023-04-15T04:27:19.749Z,441.00
2023-04-15T04:28:19.749Z,441.00
2023-04-15T04:29:19.733Z,440.00
2023-04-15T04:30:19.728Z,438.00
2023-04-15T04:31:19.795Z,433.00
2023-04-15T04:32:19.771Z,433.00
2023-04-15T04:33:19.790Z,433.00
2023-04-15T04:34:19.778Z,434.00
2023-04-15T04:35:19.784Z,435.00
2023-04-15T04:36:19.824Z,434.00
2023-04-15T04:37:19.819Z,435.00
2023-04-15T04:38:19.821Z,434.00
2023-04-15T04:39:19.848Z,434.00
2023-04-15T04:40:19.821Z,433.00
2023-04-15T04:41:19.822Z,435.00
2023-04-15T04:42:19.832Z,435.00
2023-04-15T04:43:19.890Z,435.00
2023-04-15T04:44:19.854Z,435.00
2023-04-15T04:45:19.876Z,435.00
2023-04-15T04:46:19.936Z,434.00
2023-04-15T04:47:19.884Z,437.00
2023-04-15T04:48:19.911Z,437.00
2023-04-15T04:49:19.930Z,439.00
2023-04-15T04:50:19.897Z,440.00
2023-04-15T04:51:19.956Z,441.00
2023-04-15T04:52:19.953Z,441.00
2023-04-15T04:53:19.981Z,444.00
2023-04-15T04:54:19.987Z,444.00
2023-04-15T04:55:19.986Z,442.00
2023-04-15T04:56:19.993Z,443.00
2023-04-15T04:57:20.016Z,442.00
2023-04-15T04:58:20.007Z,441.00
2023-04-15T04:59:20.051Z,439.00
2023-04-15T05:00:20.045Z,438.00
2023-04-15T05:01:20.117Z,442.00
2023-04-15T05:02:20.203Z,443.00
2023-04-15T05:03:20.266Z,442.00
2023-04-15T05:04:20.079Z,440.00
2023-04-15T05:05:20.115Z,439.00
2023-04-15T05:06:20.190Z,436.00
2023-04-15T05:07:20.098Z,433.00
2023-04-15T05:08:20.114Z,432.00
2023-04-15T05:09:20.175Z,432.00
2023-04-15T05:10:20.155Z,432.00
2023-04-15T05:11:20.144Z,432.00
2023-04-15T05:12:20.174Z,431.00
2023-04-15T05:13:20.206Z,432.00
2023-04-15T05:14:21.112Z,431.00
2023-04-15T05:15:20.194Z,431.00
2023-04-15T05:16:20.264Z,433.00
2023-04-15T05:17:20.247Z,429.00
2023-04-15T05:18:20.254Z,430.00
2023-04-15T05:19:20.238Z,430.00
2023-04-15T05:20:20.267Z,430.00
2023-04-15T05:21:20.251Z,431.00
2023-04-15T05:22:20.266Z,433.00
2023-04-15T05:23:20.299Z,433.00
2023-04-15T05:24:20.368Z,433.00
2023-04-15T05:25:20.337Z,434.00
2023-04-15T05:26:20.332Z,434.00
2023-04-15T05:27:20.301Z,434.00
2023-04-15T05:28:20.317Z,435.00
2023-04-15T05:29:20.330Z,433.00
2023-04-15T05:30:20.382Z,433.00
2023-04-15T05:31:20.429Z,432.00
2023-04-15T05:32:20.428Z,433.00
2023-04-15T05:33:20.444Z,431.00
2023-04-15T05:34:20.426Z,433.00
2023-04-15T05:35:20.411Z,433.00
2023-04-15T05:36:20.420Z,434.00
2023-04-15T05:37:20.451Z,435.00
2023-04-15T05:38:20.469Z,436.00
2023-04-15T05:39:20.444Z,438.00
2023-04-15T05:40:20.459Z,439.00
2023-04-15T05:41:20.489Z,437.00
2023-04-15T05:42:20.521Z,438.00
2023-04-15T05:43:20.523Z,438.00
2023-04-15T05:44:20.502Z,438.00
2023-04-15T05:45:20.509Z,437.00
2023-04-15T05:46:20.594Z,434.00
2023-04-15T05:47:20.532Z,431.00
2023-04-15T05:48:20.560Z,430.00
2023-04-15T05:49:20.552Z,431.00
2023-04-15T05:50:20.572Z,432.00
2023-04-15T05:51:20.578Z,434.00
2023-04-15T05:52:20.568Z,435.00
2023-04-15T05:53:20.622Z,436.00
2023-04-15T05:54:20.605Z,436.00
2023-04-15T05:55:20.599Z,436.00
2023-04-15T05:56:20.633Z,436.00
2023-04-15T05:57:20.635Z,436.00
2023-04-15T05:58:20.647Z,438.00
2023-04-15T05:59:20.654Z,440.00
2023-04-15T06:00:20.629Z,440.00
2023-04-15T06:01:20.660Z,438.00
2023-04-15T06:02:20.751Z,436.00
2023-04-15T06:03:20.756Z,435.00
2023-04-15T06:04:20.811Z,436.00
2023-04-15T06:05:20.697Z,439.00
2023-04-15T06:06:20.713Z,440.00
2023-04-15T06:07:20.730Z,438.00
2023-04-15T06:08:20.753Z,438.00
2023-04-15T06:09:20.733Z,438.00
2023-04-15T06:10:20.762Z,440.00
2023-04-15T06:11:20.771Z,439.00
2023-04-15T06:12:20.765Z,440.00
2023-04-15T06:13:20.814Z,439.00
2023-04-15T06:14:20.819Z,437.00
2023-04-15T06:15:20.827Z,438.00
2023-04-15T06:16:20.854Z,437.00
2023-04-15T06:17:20.859Z,437.00
2023-04-15T06:18:20.846Z,436.00
2023-04-15T06:19:20.860Z,436.00
2023-04-15T06:20:20.865Z,434.00
2023-04-15T06:21:20.877Z,436.00
2023-04-15T06:22:20.864Z,437.00
2023-04-15T06:23:20.968Z,435.00
2023-04-15T06:24:20.900Z,436.00
2023-04-15T06:25:20.895Z,435.00
2023-04-15T06:26:20.895Z,435.00
2023-04-15T06:27:20.921Z,436.00
2023-04-15T06:28:20.897Z,439.00
2023-04-15T06:29:20.924Z,439.00
2023-04-15T06:30:22.325Z,441.00
2023-04-15T06:31:20.976Z,440.00
2023-04-15T06:32:20.976Z,440.00
2023-04-15T06:33:20.941Z,440.00
2023-04-15T06:34:20.930Z,439.00
2023-04-15T06:35:20.943Z,438.00
2023-04-15T06:36:20.915Z,438.00
2023-04-15T06:37:20.916Z,436.00
2023-04-15T06:38:20.885Z,437.00
2023-04-15T06:39:20.868Z,437.00
2023-04-15T06:40:20.898Z,438.00
2023-04-15T06:41:20.863Z,437.00
2023-04-15T06:42:20.906Z,438.00
2023-04-15T06:43:20.892Z,437.00
2023-04-15T06:44:20.870Z,437.00
2023-04-15T06:45:20.836Z,437.00
2023-04-15T06:46:20.924Z,434.00
2023-04-15T06:47:20.824Z,432.00
2023-04-15T06:48:20.854Z,432.00
2023-04-15T06:49:20.803Z,430.00
2023-04-15T06:50:20.816Z,427.00
2023-04-15T06:51:20.817Z,428.00
2023-04-15T06:52:20.795Z,429.00
2023-04-15T06:53:20.799Z,424.00
2023-04-15T06:54:20.786Z,423.00
2023-04-15T06:55:20.802Z,423.00
2023-04-15T06:56:20.769Z,425.00
2023-04-15T06:57:20.749Z,424.00
2023-04-15T06:58:20.762Z,426.00
2023-04-15T06:59:20.752Z,429.00
2023-04-15T07:00:20.749Z,432.00
2023-04-15T07:01:20.806Z,434.00
2023-04-15T07:02:20.829Z,432.00
2023-04-15T07:03:20.736Z,431.00
2023-04-15T07:04:20.779Z,431.00
2023-04-15T07:05:20.710Z,431.00
2023-04-15T07:06:20.689Z,428.00
2023-04-15T07:07:20.700Z,428.00
2023-04-15T07:08:20.729Z,428.00
2023-04-15T07:09:20.690Z,428.00
2023-04-15T07:10:20.668Z,429.00
2023-04-15T07:11:20.678Z,429.00
2023-04-15T07:12:20.645Z,431.00
2023-04-15T07:13:20.654Z,429.00
2023-04-15T07:14:20.616Z,427.00
2023-04-15T07:15:20.764Z,426.00
2023-04-15T07:16:20.631Z,427.00
2023-04-15T07:17:20.638Z,428.00
2023-04-15T07:18:20.629Z,427.00
2023-04-15T07:19:20.617Z,428.00
2023-04-15T07:20:20.597Z,431.00
2023-04-15T07:21:20.590Z,430.00
2023-04-15T07:22:20.572Z,433.00
2023-04-15T07:23:20.562Z,436.00
2023-04-15T07:24:20.566Z,437.00
2023-04-15T07:25:20.592Z,436.00
2023-04-15T07:26:20.556Z,438.00
2023-04-15T07:27:20.568Z,438.00
2023-04-15T07:28:20.542Z,437.00
2023-04-15T07:29:20.554Z,436.00
2023-04-15T07:30:20.510Z,435.00
2023-04-15T07:31:20.550Z,433.00
2023-04-15T07:32:20.570Z,432.00
2023-04-15T07:33:20.489Z,432.00
2023-04-15T07:34:20.488Z,433.00
2023-04-15T07:35:20.501Z,434.00
2023-04-15T07:36:20.479Z,434.00
2023-04-15T07:37:20.482Z,433.00
2023-04-15T07:38:20.470Z,434.00
2023-04-15T07:39:20.459Z,436.00
2023-04-15T07:40:20.473Z,435.00
2023-04-15T07:41:20.466Z,437.00
2023-04-15T07:42:20.440Z,437.00
2023-04-15T07:43:20.453Z,436.00
2023-04-15T07:44:20.427Z,437.00
2023-04-15T07:45:20.419Z,433.00
2023-04-15T07:46:20.483Z,431.00
2023-04-15T07:47:20.447Z,429.00
2023-04-15T07:48:20.434Z,429.00
2023-04-15T07:49:20.398Z,429.00
2023-04-15T07:50:20.364Z,429.00
2023-04-15T07:51:20.447Z,428.00
2023-04-15T07:52:20.384Z,430.00
2023-04-15T07:53:20.395Z,430.00
2023-04-15T07:54:20.353Z,430.00
2023-04-15T07:55:20.328Z,432.00
2023-04-15T07:56:20.369Z,431.00
2023-04-15T07:57:20.377Z,429.00
2023-04-15T07:58:20.356Z,428.00
2023-04-15T07:59:20.305Z,427.00
2023-04-15T08:00:20.351Z,428.00
2023-04-15T08:01:20.294Z,429.00
2023-04-15T08:02:20.446Z,428.00
2023-04-15T08:03:20.329Z,429.00
2023-04-15T08:04:20.391Z,432.00
2023-04-15T08:05:20.348Z,433.00
2023-04-15T08:06:20.310Z,433.00
2023-04-15T08:07:20.279Z,434.00
2023-04-15T08:08:20.277Z,434.00
2023-04-15T08:09:20.253Z,437.00
2023-04-15T08:10:20.275Z,438.00
2023-04-15T08:11:20.275Z,441.00
2023-04-15T08:12:20.229Z,438.00
2023-04-15T08:13:20.252Z,435.00
2023-04-15T08:14:20.209Z,433.00
2023-04-15T08:15:20.198Z,434.00
2023-04-15T08:16:20.250Z,433.00
2023-04-15T08:17:20.226Z,433.00
2023-04-15T08:18:20.178Z,433.00
2023-04-15T08:19:20.189Z,431.00
2023-04-15T08:20:20.187Z,431.00
2023-04-15T08:21:20.178Z,432.00
2023-04-15T08:22:21.317Z,431.00
2023-04-15T08:23:20.131Z,431.00
2023-04-15T08:24:20.150Z,432.00
2023-04-15T08:25:20.201Z,431.00
2023-04-15T08:26:20.143Z,432.00
2023-04-15T08:27:20.124Z,434.00
2023-04-15T08:28:20.130Z,432.00
2023-04-15T08:29:20.121Z,432.00
2023-04-15T08:30:20.293Z,432.00
2023-04-15T08:31:20.134Z,433.00
2023-04-15T08:32:20.143Z,432.00
2023-04-15T08:33:20.074Z,430.00
2023-04-15T08:34:20.056Z,428.00
2023-04-15T08:35:20.045Z,429.00
2023-04-15T08:36:20.062Z,428.00
2023-04-15T08:37:20.064Z,429.00
2023-04-15T08:38:20.046Z,429.00
2023-04-15T08:39:20.061Z,425.00
2023-04-15T08:40:20.054Z,427.00
2023-04-15T08:41:20.065Z,427.00
2023-04-15T08:42:20.035Z,428.00
2023-04-15T08:43:19.980Z,427.00
2023-04-15T08:44:20.001Z,429.00
2023-04-15T08:45:19.996Z,428.00
2023-04-15T08:46:20.035Z,427.00
2023-04-15T08:47:20.023Z,425.00
2023-04-15T08:48:19.983Z,424.00
2023-04-15T08:49:19.961Z,424.00
2023-04-15T08:50:19.944Z,424.00
2023-04-15T08:51:19.953Z,425.00
2023-04-15T08:52:19.951Z,426.00
2023-04-15T08:53:19.959Z,426.00
2023-04-15T08:54:19.914Z,426.00
2023-04-15T08:55:19.906Z,424.00
2023-04-15T08:56:19.935Z,424.00
2023-04-15T08:57:19.937Z,425.00
2023-04-15T08:58:19.911Z,426.00
2023-04-15T08:59:19.912Z,426.00
2023-04-15T09:00:19.894Z,427.00
2023-04-15T09:01:19.950Z,426.00
2023-04-15T09:02:20.008Z,425.00
2023-04-15T09:03:19.946Z,425.00
2023-04-15T09:04:20.093Z,424.00
2023-04-15T09:05:19.862Z,425.00
2023-04-15T09:06:19.833Z,424.00
2023-04-15T09:07:19.844Z,421.00
2023-04-15T09:08:19.885Z,423.00
2023-04-15T09:09:19.831Z,424.00
2023-04-15T09:10:19.802Z,424.00
2023-04-15T09:11:20.333Z,423.00
2023-04-15T09:12:19.814Z,423.00
2023-04-15T09:13:19.797Z,420.00
2023-04-15T09:14:19.801Z,417.00
2023-04-15T09:15:19.775Z,417.00
2023-04-15T09:16:19.820Z,418.00
2023-04-15T09:17:19.861Z,418.00
2023-04-15T09:18:19.754Z,417.00
2023-04-15T09:19:19.761Z,419.00
2023-04-15T09:20:19.762Z,421.00
2023-04-15T09:21:19.783Z,423.00
2023-04-15T09:22:19.775Z,424.00
2023-04-15T09:23:19.764Z,424.00
2023-04-15T09:24:19.747Z,424.00
2023-04-15T09:25:19.760Z,425.00
2023-04-15T09:26:19.772Z,425.00
2023-04-15T09:27:19.745Z,427.00
2023-04-15T09:28:19.755Z,430.00
2023-04-15T09:29:19.773Z,429.00
2023-04-15T09:30:19.789Z,429.00
2023-04-15T09:31:19.791Z,429.00
2023-04-15T09:32:19.756Z,429.00
2023-04-15T09:33:19.768Z,429.00
2023-04-15T09:34:19.750Z,427.00
2023-04-15T09:35:19.711Z,426.00
2023-04-15T09:36:19.721Z,424.00
2023-04-15T09:37:31.644Z,426.00
2023-04-15T09:38:20.733Z,428.00
2023-04-15T09:39:19.722Z,428.00
2023-04-15T09:40:19.698Z,425.00
2023-04-15T09:41:19.715Z,427.00
2023-04-15T09:42:19.723Z,431.00
2023-04-15T09:43:19.683Z,433.00
2023-04-15T09:44:19.687Z,432.00
2023-04-15T09:45:19.685Z,434.00
2023-04-15T09:46:19.701Z,434.00
2023-04-15T09:47:19.683Z,431.00
2023-04-15T09:48:19.645Z,428.00
2023-04-15T09:49:19.653Z,429.00
2023-04-15T09:50:19.644Z,429.00
2023-04-15T09:51:19.633Z,429.00
2023-04-15T09:52:19.657Z,427.00
2023-04-15T09:53:19.641Z,428.00
2023-04-15T09:54:19.638Z,429.00
2023-04-15T09:55:19.581Z,429.00
2023-04-15T09:56:19.620Z,428.00
2023-04-15T09:57:19.581Z,424.00
2023-04-15T09:58:19.561Z,424.00
2023-04-15T09:59:20.105Z,423.00
2023-04-15T10:00:19.608Z,423.00
2023-04-15T10:01:19.604Z,424.00
2023-04-15T10:02:19.724Z,422.00
2023-04-15T10:03:19.691Z,422.00
2023-04-15T10:04:19.689Z,421.00
2023-04-15T10:05:19.587Z,420.00
2023-04-15T10:06:19.546Z,423.00
2023-04-15T10:07:19.530Z,422.00
2023-04-15T10:08:19.510Z,424.00
2023-04-15T10:09:19.526Z,428.00
2023-04-15T10:10:19.508Z,428.00
2023-04-15T10:11:19.479Z,427.00
2023-04-15T10:12:19.512Z,425.00
2023-04-15T10:13:19.498Z,426.00
2023-04-15T10:14:19.474Z,423.00
2023-04-15T10:15:19.498Z,420.00
2023-04-15T10:16:19.579Z,423.00
2023-04-15T10:17:19.468Z,423.00
2023-04-15T10:18:19.459Z,423.00
2023-04-15T10:19:19.417Z,424.00
2023-04-15T10:20:19.437Z,425.00
2023-04-15T10:21:19.422Z,425.00
2023-04-15T10:22:19.428Z,424.00
2023-04-15T10:23:19.433Z,423.00
2023-04-15T10:24:19.378Z,424.00
2023-04-15T10:25:19.402Z,424.00
2023-04-15T10:26:19.355Z,424.00
2023-04-15T10:27:19.347Z,424.00
2023-04-15T10:28:19.365Z,425.00
2023-04-15T10:29:19.376Z,422.00
2023-04-15T10:30:19.324Z,421.00
2023-04-15T10:31:19.354Z,422.00
2023-04-15T10:32:19.376Z,421.00
2023-04-15T10:33:19.310Z,423.00
2023-04-15T10:34:19.296Z,426.00
2023-04-15T10:35:19.303Z,429.00
2023-04-15T10:36:19.287Z,427.00
2023-04-15T10:37:19.322Z,427.00
2023-04-15T10:38:19.320Z,429.00
2023-04-15T10:39:19.316Z,425.00
2023-04-15T10:40:19.336Z,426.00
2023-04-15T10:41:20.392Z,425.00
2023-04-15T10:42:19.334Z,425.00
2023-04-15T10:43:19.362Z,424.00
2023-04-15T10:44:19.359Z,421.00
2023-04-15T10:45:19.365Z,424.00
2023-04-15T10:46:19.332Z,423.00
2023-04-15T10:47:19.323Z,422.00
2023-04-15T10:48:19.332Z,418.00
2023-04-15T10:49:19.336Z,417.00
2023-04-15T10:50:19.321Z,419.00
2023-04-15T10:51:19.307Z,419.00
2023-04-15T10:52:19.310Z,418.00
2023-04-15T10:53:20.832Z,417.00
2023-04-15T10:54:19.344Z,418.00
2023-04-15T10:55:19.327Z,420.00
2023-04-15T10:56:19.325Z,422.00
2023-04-15T10:57:19.333Z,422.00
2023-04-15T10:58:19.331Z,423.00
2023-04-15T10:59:20.398Z,425.00
2023-04-15T11:00:19.450Z,422.00
2023-04-15T11:01:19.425Z,420.00
2023-04-15T11:02:19.571Z,418.00
2023-04-15T11:03:19.551Z,417.00
2023-04-15T11:04:19.501Z,417.00
2023-04-15T11:05:19.446Z,418.00
2023-04-15T11:06:19.416Z,420.00
2023-04-15T11:07:19.428Z,421.00
2023-04-15T11:08:19.404Z,420.00
2023-04-15T11:09:19.409Z,418.00
2023-04-15T11:10:19.410Z,421.00
2023-04-15T11:11:20.031Z,422.00
2023-04-15T11:12:19.414Z,421.00
2023-04-15T11:13:19.385Z,420.00
2023-04-15T11:14:19.416Z,420.00
2023-04-15T11:15:19.445Z,419.00
2023-04-15T11:16:19.475Z,418.00
2023-04-15T11:17:19.449Z,417.00
2023-04-15T11:18:19.437Z,418.00
2023-04-15T11:19:19.443Z,418.00
2023-04-15T11:20:19.484Z,419.00
2023-04-15T11:21:19.486Z,421.00
2023-04-15T11:22:19.442Z,424.00
2023-04-15T11:23:19.433Z,425.00
2023-04-15T11:24:19.498Z,424.00
2023-04-15T11:25:19.492Z,425.00
2023-04-15T11:26:19.480Z,426.00
2023-04-15T11:27:19.524Z,426.00
2023-04-15T11:28:19.507Z,427.00
2023-04-15T11:29:19.531Z,427.00
2023-04-15T11:30:19.555Z,426.00
2023-04-15T11:31:19.577Z,424.00
2023-04-15T11:32:19.651Z,420.00
2023-04-15T11:33:19.561Z,418.00
2023-04-15T11:34:19.603Z,418.00
2023-04-15T11:35:19.602Z,418.00
2023-04-15T11:36:19.605Z,419.00
2023-04-15T11:37:19.630Z,419.00
2023-04-15T11:38:19.662Z,421.00
2023-04-15T11:39:19.641Z,419.00
2023-04-15T11:40:19.652Z,419.00
2023-04-15T11:41:19.640Z,418.00
2023-04-15T11:42:19.654Z,417.00
2023-04-15T11:43:19.699Z,417.00
2023-04-15T11:44:19.658Z,414.00
2023-04-15T11:45:19.680Z,415.00
2023-04-15T11:46:19.797Z,416.00
2023-04-15T11:47:19.724Z,416.00
2023-04-15T11:48:19.712Z,415.00
2023-04-15T11:49:19.669Z,416.00
2023-04-15T11:50:19.664Z,418.00
2023-04-15T11:51:19.722Z,418.00
2023-04-15T11:52:19.722Z,420.00
2023-04-15T11:53:19.686Z,420.00
2023-04-15T11:54:19.693Z,422.00
2023-04-15T11:55:19.662Z,421.00
2023-04-15T11:56:19.749Z,422.00
2023-04-15T11:57:19.666Z,420.00
2023-04-15T11:58:19.656Z,415.00
2023-04-15T11:59:19.619Z,413.00
2023-04-15T12:00:19.674Z,415.00
2023-04-15T12:01:19.660Z,417.00
2023-04-15T12:02:19.751Z,416.00
2023-04-15T12:03:19.802Z,416.00
2023-04-15T12:04:23.227Z,415.00
2023-04-15T12:05:20.685Z,417.00
2023-04-15T12:06:19.764Z,417.00
2023-04-15T12:07:19.594Z,414.00
2023-04-15T12:08:19.676Z,414.00
2023-04-15T12:09:19.569Z,414.00
2023-04-15T12:10:19.579Z,417.00
2023-04-15T12:11:19.573Z,415.00
2023-04-15T12:12:19.541Z,411.00
2023-04-15T12:13:19.560Z,407.00
2023-04-15T12:14:19.554Z,404.00
2023-04-15T12:15:19.541Z,404.00
2023-04-15T12:16:19.635Z,405.00
2023-04-15T12:17:19.501Z,408.00
2023-04-15T12:18:19.519Z,408.00
2023-04-15T12:19:19.503Z,408.00
2023-04-15T12:20:19.497Z,410.00
2023-04-15T12:21:19.502Z,410.00
2023-04-15T12:22:19.497Z,409.00
2023-04-15T12:23:19.482Z,408.00
2023-04-15T12:24:19.444Z,408.00
2023-04-15T12:25:19.463Z,409.00
2023-04-15T12:26:19.460Z,412.00
2023-04-15T12:27:19.465Z,413.00
2023-04-15T12:28:19.451Z,412.00